Time;durP1;ratioP1;P1;durP2;ratioP2;P2;SDS_P1;SDS_P2;PMS_P1;PMS_P2;Temp;Humidity;BMP_temperature;BMP_pressure;BME280_temperature;BME280_humidity;BME280_pressure;Samples;Min_cycle;Max_cycle;Signal;HPM_P1;HPM_P2
2023/10/25 00:01:05;;;;;;;4.40;3.30;;;;;;;6.67;100.00;97295.41;6103706;19;20002;-74
2023/10/25 00:03:10;;;;;;;3.85;3.08;;;;;;;6.65;100.00;97300.50;6102427;19;20632;-74
2023/10/25 00:05:10;;;;;;;4.40;3.40;;;;;;;6.62;100.00;97304.78;6103757;19;19999;-74
2023/10/25 00:07:11;;;;;;;3.85;3.30;;;;;;;6.61;100.00;97294.94;6103640;19;20006;-74
2023/10/25 00:09:11;;;;;;;4.57;3.60;;;;;;;6.61;100.00;97300.44;6103346;19;20514;-74
2023/10/25 00:11:11;;;;;;;3.95;3.25;;;;;;;6.64;100.00;97293.41;6103502;19;20016;-74
2023/10/25 00:13:12;;;;;;;4.50;3.17;;;;;;;6.65;100.00;97293.03;6102495;19;20491;-74
2023/10/25 00:15:12;;;;;;;4.65;3.33;;;;;;;6.68;100.00;97297.75;6102622;19;20195;-74
2023/10/25 00:17:13;;;;;;;7.55;3.60;;;;;;;6.69;100.00;97296.59;6103637;19;20101;-73
2023/10/25 00:19:13;;;;;;;5.65;3.30;;;;;;;6.74;100.00;97299.00;6103492;19;20003;-74
2023/10/25 00:21:13;;;;;;;6.57;2.97;;;;;;;6.73;100.00;97302.13;6101334;19;20463;-74
2023/10/25 00:23:13;;;;;;;7.35;3.50;;;;;;;6.70;100.00;97309.19;6101501;19;20359;-74
2023/10/25 00:25:14;;;;;;;4.60;3.28;;;;;;;6.69;100.00;97301.28;6102879;19;19999;-74
2023/10/25 00:27:14;;;;;;;4.93;2.90;;;;;;;6.68;100.00;97308.75;6102298;19;20006;-74
2023/10/25 00:29:15;;;;;;;6.50;3.50;;;;;;;6.64;100.00;97310.69;6103165;19;20002;-74
2023/10/25 00:31:15;;;;;;;7.32;3.42;;;;;;;6.57;100.00;97312.59;6102650;19;20486;-74
2023/10/25 00:33:15;;;;;;;6.18;3.17;;;;;;;6.53;100.00;97307.06;6102313;19;20094;-74
2023/10/25 00:35:16;;;;;;;6.10;3.08;;;;;;;6.55;100.00;97318.47;6103276;19;20062;-73
2023/10/25 00:37:16;;;;;;;3.78;3.10;;;;;;;6.54;100.00;97318.81;6102570;19;20032;-74
2023/10/25 00:39:16;;;;;;;5.07;3.10;;;;;;;6.55;100.00;97323.97;6102122;19;20021;-74
2023/10/25 00:41:17;;;;;;;6.00;3.67;;;;;;;6.56;100.00;97328.28;6102081;19;20095;-74
2023/10/25 00:43:20;;;;;;;3.42;2.53;;;;;;;6.58;100.00;97323.19;6100745;19;19994;-74
2023/10/25 00:45:20;;;;;;;5.75;3.00;;;;;;;6.56;100.00;97330.25;6101624;19;20014;-74
2023/10/25 00:47:20;;;;;;;7.20;3.13;;;;;;;6.58;100.00;97325.94;6102111;19;20062;-74
2023/10/25 00:49:21;;;;;;;4.38;3.20;;;;;;;6.55;100.00;97326.72;6104545;19;20467;-73
2023/10/25 00:51:23;;;;;;;5.32;3.10;;;;;;;6.55;100.00;97321.22;6106007;19;19998;-74
2023/10/25 00:53:25;;;;;;;3.30;2.53;;;;;;;6.53;100.00;97322.75;6107828;19;20474;-74
2023/10/25 00:55:25;;;;;;;6.50;3.20;;;;;;;6.51;100.00;97316.84;6107800;19;20084;-73
2023/10/25 00:57:25;;;;;;;2.92;2.50;;;;;;;6.51;100.00;97325.09;6107933;19;20364;-74
2023/10/25 00:59:27;;;;;;;5.75;3.13;;;;;;;6.56;100.00;97322.00;6107504;19;20015;-74
2023/10/25 01:01:29;;;;;;;3.58;2.58;;;;;;;6.56;100.00;97317.31;6108551;19;20010;-74
2023/10/25 01:03:29;;;;;;;4.10;2.80;;;;;;;6.63;100.00;97320.13;6105464;19;20018;-74
2023/10/25 01:05:30;;;;;;;3.85;2.70;;;;;;;6.66;100.00;97327.59;6102456;19;20030;-74
2023/10/25 01:07:30;;;;;;;4.47;3.05;;;;;;;6.65;100.00;97326.00;6108703;19;20015;-74
2023/10/25 01:09:30;;;;;;;3.20;2.63;;;;;;;6.64;100.00;97320.91;6108197;19;20002;-74
2023/10/25 01:11:32;;;;;;;4.07;2.80;;;;;;;6.62;100.00;97315.78;6104553;19;20006;-74
2023/10/25 01:13:33;;;;;;;3.90;2.78;;;;;;;6.58;100.00;97306.72;6107252;19;20029;-74
2023/10/25 01:15:33;;;;;;;4.32;3.40;;;;;;;6.57;100.00;97312.59;6106963;19;20055;-74
2023/10/25 01:17:33;;;;;;;3.63;2.95;;;;;;;6.53;100.00;97300.75;6108053;19;20014;-73
2023/10/25 01:19:34;;;;;;;4.20;2.90;;;;;;;6.53;100.00;97306.25;6108066;19;20011;-74
2023/10/25 01:21:34;;;;;;;3.65;2.67;;;;;;;6.52;100.00;97299.97;6107815;19;20015;-73
2023/10/25 01:23:34;;;;;;;4.72;2.70;;;;;;;6.46;100.00;97307.00;6106294;19;20010;-74
2023/10/25 01:25:35;;;;;;;4.40;3.03;;;;;;;6.34;100.00;97307.28;6107544;19;20007;-73
2023/10/25 01:27:35;;;;;;;5.20;2.55;;;;;;;6.32;100.00;97301.38;6107323;19;20343;-74
2023/10/25 01:29:36;;;;;;;4.93;2.83;;;;;;;6.21;100.00;97298.53;6107134;19;20039;-73
2023/10/25 01:31:36;;;;;;;3.65;2.83;;;;;;;6.19;100.00;97301.63;6107296;19;20040;-73
2023/10/25 01:33:36;;;;;;;5.35;2.55;;;;;;;6.09;100.00;97296.84;6103436;19;20010;-73
2023/10/25 01:35:37;;;;;;;3.03;2.40;;;;;;;6.11;100.00;97299.19;6107821;19;20456;-73
2023/10/25 01:37:38;;;;;;;5.45;3.30;;;;;;;6.13;100.00;97294.16;6105067;19;20002;-74
2023/10/25 01:39:38;;;;;;;5.10;2.85;;;;;;;6.03;100.00;97286.56;6107887;19;20007;-74
2023/10/25 01:41:38;;;;;;;4.97;3.30;;;;;;;6.01;100.00;97294.41;6105249;19;20467;-74
2023/10/25 01:43:39;;;;;;;4.30;3.15;;;;;;;6.01;100.00;97281.47;6104856;19;20665;-74
2023/10/25 01:45:39;;;;;;;3.88;2.80;;;;;;;6.07;100.00;97284.66;6107990;19;20454;-73
2023/10/25 01:47:40;;;;;;;7.53;4.28;;;;;;;6.03;100.00;97292.84;6107167;19;20006;-74
2023/10/25 01:49:41;;;;;;;6.25;2.92;;;;;;;6.05;100.00;97292.50;6107460;19;20041;-74
2023/10/25 01:51:42;;;;;;;4.55;2.78;;;;;;;6.02;100.00;97291.28;6105013;19;20011;-74
2023/10/25 01:53:42;;;;;;;4.90;3.28;;;;;;;6.05;100.00;97296.03;6106411;19;20025;-73
2023/10/25 01:55:42;;;;;;;3.75;2.90;;;;;;;5.98;100.00;97289.66;6106684;19;20357;-73
2023/10/25 01:57:44;;;;;;;4.75;3.33;;;;;;;5.98;100.00;97295.16;6105709;19;20042;-73
2023/10/25 01:59:44;;;;;;;4.47;2.97;;;;;;;6.04;100.00;97294.44;6105636;19;20007;-74
2023/10/25 02:01:44;;;;;;;3.90;3.13;;;;;;;6.00;100.00;97292.81;6106459;19;20467;-74
2023/10/25 02:03:45;;;;;;;4.88;3.10;;;;;;;6.03;100.00;97303.81;6105372;19;20397;-74
2023/10/25 02:05:45;;;;;;;3.60;2.78;;;;;;;5.99;100.00;97288.50;6107759;19;20455;-74
2023/10/25 02:07:46;;;;;;;3.53;2.85;;;;;;;5.95;100.00;97287.66;6105442;19;20324;-74
2023/10/25 02:09:46;;;;;;;3.65;2.60;;;;;;;5.85;100.00;97283.59;6106787;19;20463;-73
2023/10/25 02:11:47;;;;;;;5.35;2.90;;;;;;;5.87;100.00;97287.56;6105479;19;20005;-73
2023/10/25 02:13:47;;;;;;;5.32;3.10;;;;;;;5.81;100.00;97286.31;6106500;19;20488;-74
2023/10/25 02:15:48;;;;;;;4.03;2.95;;;;;;;5.77;100.00;97290.97;6106701;19;20007;-74
2023/10/25 02:17:48;;;;;;;4.55;2.90;;;;;;;5.83;100.00;97302.41;6105619;19;20408;-74
2023/10/25 02:19:48;;;;;;;4.93;3.00;;;;;;;5.75;100.00;97292.53;6107183;19;20458;-73
2023/10/25 02:21:49;;;;;;;4.57;2.67;;;;;;;5.63;100.00;97299.06;6106726;19;20021;-74
2023/10/25 02:23:49;;;;;;;5.03;3.65;;;;;;;5.59;100.00;97296.25;6104575;19;20012;-73
2023/10/25 02:25:49;;;;;;;5.00;3.55;;;;;;;5.55;100.00;97289.97;6106471;19;20707;-74
2023/10/25 02:27:50;;;;;;;4.50;3.30;;;;;;;5.52;100.00;97290.69;6105418;19;20022;-73
2023/10/25 02:29:50;;;;;;;4.65;3.08;;;;;;;5.52;100.00;97287.94;6105946;19;20513;-74
2023/10/25 02:31:51;;;;;;;4.47;2.88;;;;;;;5.60;100.00;97291.56;6106579;19;19994;-74
2023/10/25 02:33:51;;;;;;;4.30;2.85;;;;;;;5.70;100.00;97295.59;6106197;19;20488;-73
2023/10/25 02:35:55;;;;;;;5.38;3.20;;;;;;;5.74;100.00;97289.00;6106115;19;20011;-73
2023/10/25 02:37:55;;;;;;;4.80;3.30;;;;;;;5.78;100.00;97287.06;6105727;19;20399;-74
2023/10/25 02:39:55;;;;;;;5.18;3.70;;;;;;;5.78;100.00;97289.00;6106200;19;20044;-73
2023/10/25 02:41:56;;;;;;;4.95;3.40;;;;;;;5.74;100.00;97293.69;6105683;19;20007;-73
2023/10/25 02:43:56;;;;;;;4.45;3.15;;;;;;;5.70;100.00;97290.88;6104829;19;20007;-74
2023/10/25 02:46:02;;;;;;;4.30;3.20;;;;;;;5.73;100.00;97292.13;6112699;19;20486;-73
2023/10/25 02:48:02;;;;;;;4.93;3.33;;;;;;;5.70;100.00;97285.41;6111528;19;20003;-73
2023/10/25 02:50:03;;;;;;;4.80;3.83;;;;;;;5.67;100.00;97277.13;6111583;19;20002;-73
2023/10/25 02:52:04;;;;;;;5.90;3.92;;;;;;;5.71;100.00;97289.75;6109231;19;19999;-74
2023/10/25 02:54:05;;;;;;;4.07;3.08;;;;;;;5.75;100.00;97292.53;6110934;19;20011;-73
2023/10/25 02:56:07;;;;;;;3.63;2.70;;;;;;;5.74;100.00;97289.00;6111465;19;19998;-73
2023/10/25 02:58:07;;;;;;;8.07;3.42;;;;;;;5.71;100.00;97287.00;6111341;19;20035;-74
2023/10/25 03:00:10;;;;;;;3.97;3.25;;;;;;;5.69;100.00;97289.31;6110413;19;20883;-73
2023/10/25 03:02:10;;;;;;;4.88;3.22;;;;;;;5.61;100.00;97293.94;6111431;19;20006;-74
2023/10/25 03:04:10;;;;;;;5.28;2.97;;;;;;;5.58;100.00;97283.72;6111254;19;20014;-74
2023/10/25 03:06:11;;;;;;;4.55;3.08;;;;;;;5.60;100.00;97294.31;6111537;19;20070;-73
2023/10/25 03:08:11;;;;;;;5.40;3.50;;;;;;;5.57;100.00;97286.84;6111242;19;20023;-74
2023/10/25 03:10:11;;;;;;;5.65;3.40;;;;;;;5.64;100.00;97290.44;6112485;19;20317;-74
2023/10/25 03:12:12;;;;;;;4.75;3.60;;;;;;;5.58;100.00;97289.19;6110076;19;20230;-74
2023/10/25 03:14:12;;;;;;;4.18;2.90;;;;;;;5.58;100.00;97289.19;6109937;19;20258;-73
2023/10/25 03:16:13;;;;;;;5.65;3.22;;;;;;;5.62;100.00;97289.22;6112565;19;20070;-74
2023/10/25 03:18:13;;;;;;;4.18;3.13;;;;;;;5.63;100.00;97285.34;6109935;19;20011;-73
2023/10/25 03:20:14;;;;;;;5.68;3.38;;;;;;;5.60;100.00;97278.63;6111735;19;20070;-73
2023/10/25 03:22:14;;;;;;;4.97;3.42;;;;;;;5.52;100.00;97281.66;6110267;19;20481;-74
2023/10/25 03:24:14;;;;;;;4.75;3.85;;;;;;;5.47;100.00;97273.78;6109572;19;20028;-74
2023/10/25 03:26:15;;;;;;;5.95;3.47;;;;;;;5.50;100.00;97279.31;6111306;19;20491;-74
2023/10/25 03:28:15;;;;;;;6.05;3.92;;;;;;;5.49;100.00;97283.22;6109772;19;20006;-73
2023/10/25 03:30:16;;;;;;;4.72;3.90;;;;;;;5.50;100.00;97284.00;6111521;19;20017;-74
2023/10/25 03:32:17;;;;;;;5.57;3.60;;;;;;;5.50;100.00;97286.75;6110609;19;20002;-73
2023/10/25 03:34:18;;;;;;;4.80;3.72;;;;;;;5.53;100.00;97289.50;6108250;19;20007;-74
2023/10/25 03:36:19;;;;;;;6.47;3.33;;;;;;;5.52;100.00;97287.94;6110830;19;20017;-74
2023/10/25 03:38:19;;;;;;;6.70;3.45;;;;;;;5.48;100.00;97281.63;6110685;19;19999;-73
2023/10/25 03:40:20;;;;;;;7.05;4.22;;;;;;;5.44;100.00;97280.00;6110724;19;20036;-73
2023/10/25 03:42:20;;;;;;;4.63;3.33;;;;;;;5.38;100.00;97276.00;6110693;19;20074;-73
2023/10/25 03:44:20;;;;;;;3.97;3.30;;;;;;;5.36;100.00;97268.16;6110704;19;20054;-73
2023/10/25 03:46:21;;;;;;;4.00;3.25;;;;;;;5.40;100.00;97273.69;6110398;19;20010;-73
2023/10/25 03:48:21;;;;;;;4.97;3.33;;;;;;;5.43;100.00;97267.44;6100059;19;20082;-73
2023/10/25 03:50:21;;;;;;;4.07;3.33;;;;;;;5.42;100.00;97263.91;6110292;19;20014;-73
2023/10/25 03:52:22;;;;;;;4.22;2.97;;;;;;;5.37;100.00;97258.75;6108211;19;20352;-73
2023/10/25 03:54:22;;;;;;;4.43;3.53;;;;;;;5.36;100.00;97254.44;6108761;19;20011;-73
2023/10/25 03:56:23;;;;;;;4.03;2.92;;;;;;;5.33;100.00;97253.22;6108864;19;20010;-73
2023/10/25 03:58:24;;;;;;;5.45;3.15;;;;;;;5.26;100.00;97258.63;6108607;19;20002;-73
2023/10/25 04:00:25;;;;;;;4.00;3.00;;;;;;;5.23;100.00;97256.63;6110276;19;20034;-73
2023/10/25 04:02:27;;;;;;;4.95;3.63;;;;;;;5.19;100.00;97260.47;6110455;19;20022;-73
2023/10/25 04:04:27;;;;;;;;;;;;;;;5.18;100.00;97253.41;6110501;19;20369;-73
2023/10/25 04:06:28;;;;;;;4.72;3.13;;;;;;;5.13;100.00;97260.03;6110205;19;19929;-73
2023/10/25 04:08:29;;;;;;;5.30;3.22;;;;;;;5.12;100.00;97254.91;6110019;19;20013;-73
2023/10/25 04:10:29;;;;;;;3.92;2.95;;;;;;;5.11;100.00;97251.38;6109736;19;20007;-73
2023/10/25 04:12:30;;;;;;;5.32;3.20;;;;;;;5.07;100.00;97245.06;6110068;19;20468;-73
2023/10/25 04:14:30;;;;;;;5.30;3.13;;;;;;;5.07;100.00;97245.06;6109478;19;20022;-73
2023/10/25 04:16:30;;;;;;;3.35;2.58;;;;;;;5.01;100.00;97252.03;6107021;19;20006;-73
2023/10/25 04:18:31;;;;;;;4.20;3.15;;;;;;;5.01;100.00;97250.06;6110051;19;20179;-73
2023/10/25 04:20:32;;;;;;;5.15;3.17;;;;;;;5.04;100.00;97251.28;6109737;19;20078;-73
2023/10/25 04:22:34;;;;;;;3.63;2.65;;;;;;;4.98;100.00;97244.56;6108332;19;20003;-74
2023/10/25 04:24:34;;;;;;;3.78;2.85;;;;;;;4.96;100.00;97241.38;6108122;19;20094;-73
2023/10/25 04:26:35;;;;;;;5.15;3.80;;;;;;;4.93;100.00;97247.59;6107156;19;20471;-73
2023/10/25 04:28:43;;;;;;;5.78;3.05;;;;;;;4.90;100.00;97240.94;6109015;19;20006;-73
2023/10/25 04:30:45;;;;;;;4.78;3.20;;;;;;;4.91;100.00;97242.50;6108876;19;20007;-73
2023/10/25 04:32:46;;;;;;;5.22;3.10;;;;;;;4.90;100.00;97240.13;6109887;19;20006;-73
2023/10/25 04:34:46;;;;;;;5.72;3.50;;;;;;;4.93;100.00;97233.91;6108520;19;20030;-73
2023/10/25 04:36:47;;;;;;;5.75;3.67;;;;;;;4.90;100.00;97240.13;6108767;19;20007;-73
2023/10/25 04:38:49;;;;;;;5.68;3.55;;;;;;;4.90;100.00;97227.22;6107775;19;20514;-73
2023/10/25 04:40:53;;;;;;;5.95;3.63;;;;;;;4.91;100.00;97231.53;6108538;19;20070;-73
2023/10/25 04:42:56;;;;;;;5.93;4.22;;;;;;;4.91;100.00;97228.00;6105969;19;20010;-73
2023/10/25 04:44:56;;;;;;;4.50;3.50;;;;;;;4.97;100.00;97237.50;6105417;19;20006;-73
2023/10/25 04:46:57;;;;;;;7.40;4.28;;;;;;;4.98;100.00;97228.91;6105781;19;20474;-73
2023/10/25 04:48:58;;;;;;;5.53;3.63;;;;;;;4.96;100.00;97231.19;6101788;19;20014;-73
2023/10/25 04:50:58;;;;;;;7.20;4.03;;;;;;;4.96;100.00;97212.00;6100936;19;20043;-73
2023/10/25 04:52:59;;;;;;;5.55;3.90;;;;;;;4.97;100.00;97212.81;6102880;19;20011;-74
2023/10/25 04:54:59;;;;;;;8.40;4.68;;;;;;;4.91;100.00;97206.09;6097098;19;20347;-73
2023/10/25 04:56:59;;;;;;;5.47;4.30;;;;;;;4.86;100.00;97196.22;6102682;19;20007;-73
2023/10/25 04:59:00;;;;;;;5.68;3.95;;;;;;;4.88;100.00;97195.84;6099708;19;20074;-73
2023/10/25 05:01:09;;;;;;;5.72;4.22;;;;;;;4.90;100.00;97193.53;6095914;19;20364;-73
2023/10/25 05:03:11;;;;;;;5.47;3.90;;;;;;;5.00;100.00;97193.66;6095808;19;20040;-73
2023/10/25 05:05:11;;;;;;;6.38;4.47;;;;;;;5.01;100.00;97195.25;6100985;19;20019;-73
2023/10/25 05:07:12;;;;;;;6.22;4.25;;;;;;;4.99;100.00;97194.84;6101026;19;20002;-73
2023/10/25 05:09:12;;;;;;;4.70;3.95;;;;;;;4.98;100.00;97193.25;6101634;19;20003;-73
2023/10/25 05:11:15;;;;;;;5.30;3.72;;;;;;;4.98;100.00;97187.00;6100652;19;20422;-73
2023/10/25 05:13:16;;;;;;;5.82;3.92;;;;;;;4.97;100.00;97185.41;6099827;19;20010;-73
2023/10/25 05:15:18;;;;;;;5.40;3.95;;;;;;;4.91;100.00;97195.13;6101544;19;20712;-73
2023/10/25 05:17:18;;;;;;;4.38;3.28;;;;;;;4.87;100.00;97191.53;6101651;19;20016;-73
2023/10/25 05:19:19;;;;;;;5.82;3.85;;;;;;;4.79;100.00;97194.16;6100594;19;20006;-73
2023/10/25 05:21:25;;;;;;;5.05;3.80;;;;;;;4.81;100.00;97198.50;6099623;19;20500;-73
2023/10/25 05:23:30;;;;;;;5.47;3.80;;;;;;;4.89;100.00;97200.19;6099203;19;20007;-73
2023/10/25 05:25:31;;;;;;;7.50;4.32;;;;;;;4.85;100.00;97193.84;6100374;19;20019;-74
2023/10/25 05:27:32;;;;;;;7.60;4.43;;;;;;;4.79;100.00;97187.91;6100826;19;20002;-73
2023/10/25 05:29:33;;;;;;;9.38;4.75;;;;;;;4.72;100.00;97190.56;6100444;19;20048;-73
2023/10/25 05:31:34;;;;;;;8.93;4.60;;;;;;;4.66;100.00;97206.53;6100663;19;20006;-73
2023/10/25 05:33:35;;;;;;;7.35;4.90;;;;;;;4.63;100.00;97203.72;6099773;19;20085;-73
2023/10/25 05:35:35;;;;;;;6.00;4.47;;;;;;;4.62;100.00;97200.19;6098858;19;20014;-73
2023/10/25 05:37:36;;;;;;;11.15;5.07;;;;;;;4.61;100.00;97211.53;6100573;19;20006;-73
2023/10/25 05:39:37;;;;;;;8.50;3.80;;;;;;;4.54;100.00;97195.00;6099079;19;20039;-73
2023/10/25 05:41:40;;;;;;;5.15;3.97;;;;;;;4.57;100.00;97205.22;6099927;19;20010;-73
2023/10/25 05:43:42;;;;;;;6.18;4.35;;;;;;;4.51;100.00;97205.53;6097461;19;20118;-73
2023/10/25 05:45:42;;;;;;;8.75;4.03;;;;;;;4.44;100.00;97202.69;6075031;19;20011;-73
2023/10/25 05:47:43;;;;;;;7.25;3.95;;;;;;;4.46;100.00;97208.56;6097450;19;20011;-73
2023/10/25 05:49:44;;;;;;;5.68;3.97;;;;;;;4.46;100.00;97211.31;6104172;19;20014;-73
2023/10/25 05:51:45;;;;;;;6.70;4.57;;;;;;;4.49;100.00;97209.81;6105600;19;20474;-73
2023/10/25 05:53:47;;;;;;;8.88;4.32;;;;;;;4.50;100.00;97211.38;6104615;19;20022;-73
2023/10/25 05:55:47;;;;;;;8.02;3.70;;;;;;;4.44;100.00;97196.41;6105516;19;20007;-73
2023/10/25 05:57:48;;;;;;;6.68;3.85;;;;;;;4.33;100.00;97198.22;6105362;19;20009;-74
2023/10/25 05:59:49;;;;;;;9.02;3.97;;;;;;;4.19;100.00;97199.56;6106421;19;20014;-73
2023/10/25 06:02:01;;;;;;;7.70;4.90;;;;;;;4.20;100.00;97200.34;6106329;19;20007;-73
2023/10/25 06:04:04;;;;;;;6.50;3.63;;;;;;;4.22;100.00;97211.75;6104759;19;20011;-73
2023/10/25 06:06:10;;;;;;;5.88;3.88;;;;;;;4.21;100.00;97210.94;6107550;19;20011;-73
2023/10/25 06:08:11;;;;;;;7.65;3.35;;;;;;;4.27;100.00;97213.38;6106866;19;20556;-73
2023/10/25 06:10:12;;;;;;;4.53;3.20;;;;;;;4.24;100.00;97209.44;6107218;19;20018;-73
2023/10/25 06:12:13;;;;;;;10.63;4.88;;;;;;;4.16;100.00;97208.50;6104435;19;20006;-74
2023/10/25 06:14:14;;;;;;;20.90;4.88;;;;;;;4.07;100.00;97197.03;6105416;19;20304;-74
2023/10/25 06:16:14;;;;;;;11.60;4.20;;;;;;;4.02;100.00;97205.53;6104519;19;20006;-73
2023/10/25 06:18:15;;;;;;;4.47;3.60;;;;;;;4.03;100.00;97203.59;6104535;19;20003;-74
2023/10/25 06:20:19;;;;;;;8.45;4.10;;;;;;;4.09;100.00;97204.88;6108348;19;20023;-73
2023/10/25 06:22:20;;;;;;;5.38;4.03;;;;;;;4.16;100.00;97216.72;6109965;19;20010;-73
2023/10/25 06:24:20;;;;;;;5.38;3.78;;;;;;;4.09;100.00;97207.59;6110132;19;20565;-73
2023/10/25 06:26:21;;;;;;;10.98;4.45;;;;;;;3.99;100.00;97209.00;6111353;19;20026;-73
2023/10/25 06:28:21;;;;;;;6.60;4.10;;;;;;;3.95;100.00;97211.69;6111616;19;20014;-74
2023/10/25 06:30:21;;;;;;;5.93;3.83;;;;;;;3.95;100.00;97222.63;6110557;19;20464;-74
2023/10/25 06:32:22;;;;;;;5.78;3.60;;;;;;;4.02;100.00;97213.75;6112123;19;20044;-74
2023/10/25 06:34:22;;;;;;;7.40;3.78;;;;;;;4.10;100.00;97211.94;6109677;19;20002;-73
2023/10/25 06:36:23;;;;;;;7.63;4.25;;;;;;;4.17;100.00;97212.03;6112105;19;20019;-74
2023/10/25 06:38:24;;;;;;;5.57;3.75;;;;;;;4.19;100.00;97206.97;6112227;19;20022;-74
2023/10/25 06:40:24;;;;;;;6.32;3.88;;;;;;;4.20;100.00;97203.09;6109740;19;20054;-73
2023/10/25 06:42:25;;;;;;;6.32;4.55;;;;;;;4.19;100.00;97202.28;6110548;19;20450;-73
2023/10/25 06:44:25;;;;;;;5.45;3.80;;;;;;;4.27;100.00;97200.47;6111635;19;20030;-73
2023/10/25 06:46:26;;;;;;;6.70;4.30;;;;;;;4.28;100.00;97206.72;6110077;19;20018;-73
2023/10/25 06:48:27;;;;;;;7.32;4.20;;;;;;;4.27;100.00;97197.72;6111557;19;20479;-73
2023/10/25 06:50:28;;;;;;;5.90;4.13;;;;;;;4.32;100.00;97213.84;6111107;19;20013;-73
2023/10/25 06:52:28;;;;;;;4.82;3.70;;;;;;;4.39;100.00;97202.22;6111735;19;20015;-73
2023/10/25 06:54:29;;;;;;;10.82;4.93;;;;;;;4.41;100.00;97208.13;6110518;19;20087;-74
2023/10/25 06:56:29;;;;;;;8.02;4.88;;;;;;;4.45;100.00;97209.72;6111294;19;20419;-73
2023/10/25 06:58:30;;;;;;;7.13;5.18;;;;;;;4.50;100.00;97212.16;6110905;19;20003;-74
2023/10/25 07:00:31;;;;;;;6.68;4.97;;;;;;;4.47;100.00;97212.91;6111446;19;20014;-73
2023/10/25 07:02:40;;;;;;;7.00;4.97;;;;;;;4.50;100.00;97209.44;6109746;19;20041;-73
2023/10/25 07:04:42;;;;;;;7.95;5.38;;;;;;;4.55;100.00;97205.59;6110514;19;20011;-73
2023/10/25 07:06:46;;;;;;;7.78;5.15;;;;;;;4.60;100.00;97204.47;6110995;19;20463;-73
2023/10/25 07:08:48;;;;;;;11.05;5.28;;;;;;;4.67;100.00;97205.38;6111442;19;20021;-73
2023/10/25 07:10:48;;;;;;;10.23;6.00;;;;;;;4.70;100.00;97203.81;6110613;19;20355;-73
2023/10/25 07:12:49;;;;;;;11.73;6.85;;;;;;;4.74;100.00;97197.25;6111199;19;20010;-73
2023/10/25 07:14:49;;;;;;;13.98;7.00;;;;;;;4.77;100.00;97192.97;6109829;19;20049;-73
2023/10/25 07:16:50;;;;;;;13.80;7.63;;;;;;;4.77;100.00;97193.75;6110106;19;20007;-73
2023/10/25 07:18:50;;;;;;;13.60;8.40;;;;;;;4.75;100.00;97193.34;6110916;19;20325;-73
2023/10/25 07:20:51;;;;;;;9.75;7.20;;;;;;;4.77;100.00;97195.72;6110691;19;20006;-73
2023/10/25 07:22:51;;;;;;;11.23;7.28;;;;;;;4.81;100.00;97187.56;6110598;19;20015;-73
2023/10/25 07:24:51;;;;;;;11.10;6.90;;;;;;;4.84;100.00;97190.34;6110826;19;20028;-73
2023/10/25 07:26:52;;;;;;;9.77;6.82;;;;;;;4.90;100.00;97188.06;6110455;19;20006;-73
2023/10/25 07:28:52;;;;;;;10.60;7.22;;;;;;;4.94;100.00;97195.16;6111322;19;20088;-73
2023/10/25 07:30:53;;;;;;;11.23;7.13;;;;;;;4.94;100.00;97192.41;6110554;19;20017;-73
2023/10/25 07:32:53;;;;;;;11.98;8.30;;;;;;;4.97;100.00;97188.16;6110534;19;20006;-73
2023/10/25 07:34:53;;;;;;;13.13;8.50;;;;;;;4.99;100.00;97188.56;6109038;19;20564;-73
2023/10/25 07:36:54;;;;;;;13.20;7.20;;;;;;;5.02;100.00;97191.34;6110735;19;20010;-73
2023/10/25 07:38:54;;;;;;;10.52;7.20;;;;;;;5.03;100.00;97192.13;6108208;19;20019;-73
2023/10/25 07:40:54;;;;;;;9.85;6.70;;;;;;;5.08;100.00;97195.34;6110348;19;20011;-73
2023/10/25 07:42:55;;;;;;;7.68;6.15;;;;;;;5.10;100.00;97189.47;6110011;19;20029;-74
2023/10/25 07:44:57;;;;;;;13.05;7.15;;;;;;;5.13;100.00;97187.94;6109278;19;20469;-74
2023/10/25 07:46:57;;;;;;;9.80;7.40;;;;;;;5.13;100.00;97183.28;6109479;19;20015;-73
2023/10/25 07:48:57;;;;;;;10.15;7.80;;;;;;;5.15;100.00;97177.41;6110090;19;20020;-73
2023/10/25 07:51:04;;;;;;;12.20;7.88;;;;;;;5.20;100.00;97193.50;6110250;19;20094;-73
2023/10/25 07:53:04;;;;;;;10.02;6.72;;;;;;;5.24;100.00;97194.34;6108569;19;20320;-73
2023/10/25 07:55:05;;;;;;;9.00;6.07;;;;;;;5.23;100.00;97190.81;6109669;19;20014;-73
2023/10/25 07:57:05;;;;;;;9.38;6.43;;;;;;;5.26;100.00;97184.59;6110352;19;20006;-73
2023/10/25 07:59:06;;;;;;;7.57;5.82;;;;;;;5.30;100.00;97187.38;6109243;19;20010;-73
2023/10/25 08:01:06;;;;;;;10.23;6.07;;;;;;;5.34;100.00;97185.44;6108860;19;20032;-73
2023/10/25 08:03:06;;;;;;;8.07;6.13;;;;;;;5.36;100.00;97181.16;6108956;19;20007;-73
2023/10/25 08:05:07;;;;;;;8.73;5.07;;;;;;;5.42;100.00;97178.88;6109822;19;20014;-73
2023/10/25 08:07:10;;;;;;;6.50;4.90;;;;;;;5.47;100.00;97181.31;6110174;19;20035;-73
2023/10/25 08:09:10;;;;;;;7.82;5.45;;;;;;;5.53;100.00;97174.28;6110520;19;20100;-73
2023/10/25 08:11:10;;;;;;;7.05;4.85;;;;;;;5.59;100.00;97161.81;6109180;19;20566;-74
2023/10/25 08:13:11;;;;;;;6.80;4.65;;;;;;;5.65;100.00;97170.50;6109829;19;20471;-74
2023/10/25 08:15:12;;;;;;;7.45;4.40;;;;;;;5.72;100.00;97161.56;6109130;19;20023;-73
2023/10/25 08:17:12;;;;;;;8.38;5.18;;;;;;;5.77;100.00;97167.47;6110050;19;20010;-73
2023/10/25 08:19:15;;;;;;;9.85;6.22;;;;;;;5.82;100.00;97152.63;6109935;19;20030;-73
2023/10/25 08:21:16;;;;;;;9.00;5.93;;;;;;;5.89;100.00;97158.19;6110296;19;20011;-73
2023/10/25 08:23:16;;;;;;;9.05;5.60;;;;;;;5.99;100.00;97163.00;6109024;19;20021;-73
2023/10/25 08:25:16;;;;;;;7.55;5.13;;;;;;;6.08;100.00;97149.72;6109937;19;20398;-73
2023/10/25 08:27:18;;;;;;;8.48;4.63;;;;;;;6.25;100.00;97142.00;6110203;19;20411;-73
2023/10/25 08:29:18;;;;;;;9.68;5.70;;;;;;;6.38;100.00;97140.53;6109631;19;20011;-74
2023/10/25 08:31:19;;;;;;;9.77;5.60;;;;;;;6.43;100.00;97142.91;6109787;19;20021;-73
2023/10/25 08:33:19;;;;;;;9.43;5.68;;;;;;;6.53;100.00;97139.44;6108040;19;20409;-73
2023/10/25 08:35:19;;;;;;;9.15;5.32;;;;;;;6.61;100.00;97141.03;6110049;19;20014;-73
2023/10/25 08:37:20;;;;;;;8.77;5.03;;;;;;;6.71;100.00;97147.78;6109445;19;20014;-73
2023/10/25 08:39:23;;;;;;;10.57;6.57;;;;;;;6.80;100.00;97142.72;6107366;19;20484;-73
2023/10/25 08:41:27;;;;;;;5.93;4.60;;;;;;;6.86;100.00;97138.41;6108839;19;20042;-73
2023/10/25 08:43:27;;;;;;;8.32;5.00;;;;;;;6.98;100.00;97143.59;6107630;19;20333;-74
2023/10/25 08:45:34;;;;;;;7.75;4.30;;;;;;;7.09;100.00;97140.09;6108224;19;20010;-74
2023/10/25 08:47:35;;;;;;;5.88;4.10;;;;;;;7.16;100.00;97131.88;6108832;19;20013;-74
2023/10/25 08:49:37;;;;;;;4.40;3.67;;;;;;;7.24;100.00;97139.75;6098669;19;20017;-73
2023/10/25 08:51:43;;;;;;;4.45;3.17;;;;;;;7.31;100.00;97136.25;6108244;19;20575;-73
2023/10/25 08:53:45;;;;;;;3.60;2.60;;;;;;;7.41;100.00;97142.94;6108085;19;20003;-73
2023/10/25 08:55:45;;;;;;;4.93;3.08;;;;;;;7.52;100.00;97138.25;6109175;19;20010;-73
2023/10/25 08:57:48;;;;;;;4.75;3.00;;;;;;;7.65;100.00;97144.19;6106765;19;20038;-73
2023/10/25 08:59:51;;;;;;;5.38;4.00;;;;;;;7.74;100.00;97139.88;6107147;19;20002;-73
2023/10/25 09:01:51;;;;;;;3.45;2.90;;;;;;;7.85;100.00;97148.13;6107524;19;20485;-73
2023/10/25 09:03:52;;;;;;;6.80;3.30;;;;;;;7.95;100.00;97143.81;6107817;19;20006;-73
2023/10/25 09:05:52;;;;;;;4.40;3.80;;;;;;;8.07;100.00;97135.94;6108850;19;20003;-74
2023/10/25 09:07:53;;;;;;;5.03;3.70;;;;;;;8.13;100.00;97131.63;6107862;19;20023;-74
2023/10/25 09:09:53;;;;;;;5.40;3.85;;;;;;;8.20;100.00;97130.84;6106851;19;20006;-73
2023/10/25 09:11:53;;;;;;;6.80;4.13;;;;;;;8.32;100.00;97141.44;6107533;19;20091;-74
2023/10/25 09:13:59;;;;;;;4.55;3.63;;;;;;;8.42;100.00;97137.13;6106341;19;20003;-73
2023/10/25 09:16:11;;;;;;;5.20;3.70;;;;;;;8.47;100.00;97130.44;6108595;19;20014;-74
2023/10/25 09:18:12;;;;;;;5.40;4.47;;;;;;;8.52;100.00;97127.25;6004930;19;2007373;-74
2023/10/25 09:20:12;;;;;;;5.60;3.15;;;;;;;8.59;100.00;97125.28;6108002;19;20023;-73
2023/10/25 09:22:23;;;;;;;3.90;3.25;;;;;;;8.67;100.00;97126.03;6108947;19;20229;-73
2023/10/25 09:24:23;;;;;;;6.43;2.55;;;;;;;8.73;100.00;97119.72;6106909;19;19999;-74
2023/10/25 09:26:23;;;;;;;4.38;2.72;;;;;;;8.79;100.00;97122.09;6108728;19;20006;-74
2023/10/25 09:28:32;;;;;;;3.50;2.17;;;;;;;8.83;100.00;97120.88;6107472;19;20007;-74